sensor_id;sensor_type;location;lat;lon;timestamp;P1;durP1;ratioP1;P2;durP2;ratioP2
22490;SDS011;11412;50.802;4.350;2022-08-23T00:01:18;16.27;;;4.15;;
22490;SDS011;11412;50.802;4.350;2022-08-23T00:03:49;12.40;;;4.28;;
22490;SDS011;11412;50.802;4.350;2022-08-23T00:06:16;5.40;;;4.00;;
22490;SDS011;11412;50.802;4.350;2022-08-23T00:08:42;7.78;;;4.10;;
22490;SDS011;11412;50.802;4.350;2022-08-23T00:14:05;9.13;;;4.53;;
22490;SDS011;11412;50.802;4.350;2022-08-23T00:16:33;9.93;;;4.50;;
22490;SDS011;11412;50.802;4.350;2022-08-23T00:19:00;12.60;;;4.05;;
22490;SDS011;11412;50.802;4.350;2022-08-23T00:21:26;9.52;;;4.25;;
22490;SDS011;11412;50.802;4.350;2022-08-23T00:23:53;5.13;;;3.53;;
22490;SDS011;11412;50.802;4.350;2022-08-23T00:26:19;10.75;;;4.35;;
22490;SDS011;11412;50.802;4.350;2022-08-23T00:28:47;9.18;;;4.82;;
22490;SDS011;11412;50.802;4.350;2022-08-23T00:31:13;9.30;;;4.20;;
22490;SDS011;11412;50.802;4.350;2022-08-23T00:33:40;9.15;;;3.95;;
22490;SDS011;11412;50.802;4.350;2022-08-23T00:36:06;13.20;;;4.05;;
22490;SDS011;11412;50.802;4.350;2022-08-23T00:38:31;10.20;;;4.10;;
22490;SDS011;11412;50.802;4.350;2022-08-23T00:40:57;8.80;;;4.03;;
22490;SDS011;11412;50.802;4.350;2022-08-23T00:43:25;11.15;;;4.50;;
22490;SDS011;11412;50.802;4.350;2022-08-23T00:49:03;8.27;;;4.07;;
22490;SDS011;11412;50.802;4.350;2022-08-23T00:51:34;6.63;;;3.80;;
22490;SDS011;11412;50.802;4.350;2022-08-23T00:54:06;10.13;;;3.63;;
22490;SDS011;11412;50.802;4.350;2022-08-23T00:56:35;11.65;;;4.53;;
22490;SDS011;11412;50.802;4.350;2022-08-23T00:59:03;9.45;;;4.15;;
22490;SDS011;11412;50.802;4.350;2022-08-23T01:01:29;5.97;;;3.88;;
22490;SDS011;11412;50.802;4.350;2022-08-23T01:03:56;11.85;;;4.50;;
22490;SDS011;11412;50.802;4.350;2022-08-23T01:06:26;5.63;;;4.13;;
22490;SDS011;11412;50.802;4.350;2022-08-23T01:08:53;8.13;;;3.85;;
22490;SDS011;11412;50.802;4.350;2022-08-23T01:11:35;9.75;;;4.10;;
22490;SDS011;11412;50.802;4.350;2022-08-23T01:16:52;9.13;;;4.45;;
22490;SDS011;11412;50.802;4.350;2022-08-23T01:19:34;8.00;;;4.22;;
22490;SDS011;11412;50.802;4.350;2022-08-23T01:25:04;14.43;;;4.05;;
22490;SDS011;11412;50.802;4.350;2022-08-23T01:27:31;9.32;;;3.83;;
22490;SDS011;11412;50.802;4.350;2022-08-23T01:29:57;15.98;;;4.60;;
22490;SDS011;11412;50.802;4.350;2022-08-23T01:32:23;11.27;;;4.95;;
22490;SDS011;11412;50.802;4.350;2022-08-23T01:34:49;7.30;;;4.15;;
22490;SDS011;11412;50.802;4.350;2022-08-23T01:37:16;11.98;;;4.63;;
22490;SDS011;11412;50.802;4.350;2022-08-23T01:39:44;9.43;;;4.03;;
22490;SDS011;11412;50.802;4.350;2022-08-23T01:42:09;6.90;;;4.03;;
22490;SDS011;11412;50.802;4.350;2022-08-23T01:44:36;10.52;;;4.05;;
22490;SDS011;11412;50.802;4.350;2022-08-23T01:47:02;10.77;;;4.20;;
22490;SDS011;11412;50.802;4.350;2022-08-23T01:49:28;6.68;;;4.10;;
22490;SDS011;11412;50.802;4.350;2022-08-23T01:51:53;5.97;;;4.03;;
22490;SDS011;11412;50.802;4.350;2022-08-23T01:54:19;8.52;;;4.30;;
22490;SDS011;11412;50.802;4.350;2022-08-23T01:56:45;10.65;;;4.10;;
22490;SDS011;11412;50.802;4.350;2022-08-23T01:59:11;7.95;;;3.88;;
22490;SDS011;11412;50.802;4.350;2022-08-23T02:01:37;9.20;;;4.10;;
22490;SDS011;11412;50.802;4.350;2022-08-23T02:04:03;8.70;;;4.20;;
22490;SDS011;11412;50.802;4.350;2022-08-23T02:06:29;5.50;;;3.65;;
22490;SDS011;11412;50.802;4.350;2022-08-23T02:08:55;6.40;;;3.95;;
22490;SDS011;11412;50.802;4.350;2022-08-23T02:11:29;6.35;;;3.83;;
22490;SDS011;11412;50.802;4.350;2022-08-23T02:13:59;11.07;;;4.68;;
22490;SDS011;11412;50.802;4.350;2022-08-23T02:16:29;8.68;;;4.28;;
22490;SDS011;11412;50.802;4.350;2022-08-23T02:19:00;8.32;;;4.65;;
22490;SDS011;11412;50.802;4.350;2022-08-23T02:21:29;6.18;;;3.83;;
22490;SDS011;11412;50.802;4.350;2022-08-23T02:23:56;8.00;;;4.13;;
22490;SDS011;11412;50.802;4.350;2022-08-23T02:26:23;8.00;;;4.60;;
22490;SDS011;11412;50.802;4.350;2022-08-23T02:28:49;9.65;;;4.47;;
22490;SDS011;11412;50.802;4.350;2022-08-23T02:31:16;10.27;;;4.35;;
22490;SDS011;11412;50.802;4.350;2022-08-23T02:33:42;9.60;;;5.35;;
22490;SDS011;11412;50.802;4.350;2022-08-23T02:36:08;9.98;;;3.92;;
22490;SDS011;11412;50.802;4.350;2022-08-23T02:38:33;7.30;;;4.10;;
22490;SDS011;11412;50.802;4.350;2022-08-23T02:40:59;4.55;;;3.25;;
22490;SDS011;11412;50.802;4.350;2022-08-23T02:43:25;9.00;;;4.05;;
22490;SDS011;11412;50.802;4.350;2022-08-23T02:45:51;9.57;;;4.00;;
22490;SDS011;11412;50.802;4.350;2022-08-23T02:48:17;5.05;;;4.25;;
22490;SDS011;11412;50.802;4.350;2022-08-23T02:50:43;7.50;;;3.92;;
22490;SDS011;11412;50.802;4.350;2022-08-23T02:53:08;8.15;;;3.90;;
22490;SDS011;11412;50.802;4.350;2022-08-23T02:55:34;7.85;;;4.72;;
22490;SDS011;11412;50.802;4.350;2022-08-23T02:58:00;7.03;;;4.40;;
22490;SDS011;11412;50.802;4.350;2022-08-23T03:00:26;10.48;;;4.75;;
22490;SDS011;11412;50.802;4.350;2022-08-23T03:02:52;7.38;;;4.18;;
22490;SDS011;11412;50.802;4.350;2022-08-23T03:05:18;9.48;;;4.43;;
22490;SDS011;11412;50.802;4.350;2022-08-23T03:07:43;5.25;;;3.97;;
22490;SDS011;11412;50.802;4.350;2022-08-23T03:10:09;9.23;;;4.53;;
22490;SDS011;11412;50.802;4.350;2022-08-23T03:12:36;9.45;;;4.25;;
22490;SDS011;11412;50.802;4.350;2022-08-23T03:15:03;7.35;;;4.07;;
22490;SDS011;11412;50.802;4.350;2022-08-23T03:17:29;8.57;;;4.45;;
22490;SDS011;11412;50.802;4.350;2022-08-23T03:19:55;9.30;;;4.40;;
22490;SDS011;11412;50.802;4.350;2022-08-23T03:22:20;9.52;;;4.72;;
22490;SDS011;11412;50.802;4.350;2022-08-23T03:24:47;9.02;;;4.60;;
22490;SDS011;11412;50.802;4.350;2022-08-23T03:27:13;7.82;;;4.55;;
22490;SDS011;11412;50.802;4.350;2022-08-23T03:29:39;10.35;;;4.65;;
22490;SDS011;11412;50.802;4.350;2022-08-23T03:32:05;9.70;;;4.55;;
22490;SDS011;11412;50.802;4.350;2022-08-23T03:34:31;7.18;;;4.57;;
22490;SDS011;11412;50.802;4.350;2022-08-23T03:36:57;9.35;;;5.05;;
22490;SDS011;11412;50.802;4.350;2022-08-23T03:39:23;7.63;;;4.63;;
22490;SDS011;11412;50.802;4.350;2022-08-23T03:41:49;6.85;;;4.63;;
22490;SDS011;11412;50.802;4.350;2022-08-23T03:44:14;7.45;;;5.30;;
22490;SDS011;11412;50.802;4.350;2022-08-23T03:46:40;7.82;;;5.07;;
22490;SDS011;11412;50.802;4.350;2022-08-23T03:49:06;9.50;;;5.00;;
22490;SDS011;11412;50.802;4.350;2022-08-23T03:51:32;7.93;;;4.80;;
22490;SDS011;11412;50.802;4.350;2022-08-23T03:53:59;8.77;;;4.93;;
22490;SDS011;11412;50.802;4.350;2022-08-23T03:56:27;9.35;;;4.95;;
22490;SDS011;11412;50.802;4.350;2022-08-23T03:58:59;8.20;;;5.03;;
22490;SDS011;11412;50.802;4.350;2022-08-23T04:01:26;9.07;;;4.65;;
22490;SDS011;11412;50.802;4.350;2022-08-23T04:03:52;9.20;;;5.15;;
22490;SDS011;11412;50.802;4.350;2022-08-23T04:06:17;7.60;;;4.38;;
22490;SDS011;11412;50.802;4.350;2022-08-23T04:08:43;7.38;;;4.93;;
22490;SDS011;11412;50.802;4.350;2022-08-23T04:11:11;9.38;;;5.10;;
22490;SDS011;11412;50.802;4.350;2022-08-23T04:13:38;10.98;;;5.90;;
22490;SDS011;11412;50.802;4.350;2022-08-23T04:16:04;10.35;;;5.43;;
22490;SDS011;11412;50.802;4.350;2022-08-23T04:18:31;10.77;;;5.25;;
22490;SDS011;11412;50.802;4.350;2022-08-23T04:20:58;7.22;;;5.40;;
22490;SDS011;11412;50.802;4.350;2022-08-23T04:23:28;11.60;;;5.38;;
22490;SDS011;11412;50.802;4.350;2022-08-23T04:25:54;12.23;;;5.43;;
22490;SDS011;11412;50.802;4.350;2022-08-23T04:28:21;10.55;;;4.75;;
22490;SDS011;11412;50.802;4.350;2022-08-23T04:30:47;10.02;;;5.50;;
22490;SDS011;11412;50.802;4.350;2022-08-23T04:33:14;13.63;;;6.43;;
22490;SDS011;11412;50.802;4.350;2022-08-23T04:35:40;9.23;;;5.65;;
22490;SDS011;11412;50.802;4.350;2022-08-23T04:38:06;9.30;;;6.03;;
22490;SDS011;11412;50.802;4.350;2022-08-23T04:40:31;11.95;;;6.00;;
22490;SDS011;11412;50.802;4.350;2022-08-23T04:43:15;13.27;;;6.07;;
22490;SDS011;11412;50.802;4.350;2022-08-23T04:45:41;11.57;;;6.20;;
22490;SDS011;11412;50.802;4.350;2022-08-23T04:48:07;12.30;;;6.15;;
22490;SDS011;11412;50.802;4.350;2022-08-23T04:50:33;11.60;;;6.80;;
22490;SDS011;11412;50.802;4.350;2022-08-23T04:53:00;6.70;;;5.90;;
22490;SDS011;11412;50.802;4.350;2022-08-23T04:55:26;11.07;;;6.43;;
22490;SDS011;11412;50.802;4.350;2022-08-23T04:57:52;11.32;;;5.97;;
22490;SDS011;11412;50.802;4.350;2022-08-23T05:00:18;10.65;;;6.28;;
22490;SDS011;11412;50.802;4.350;2022-08-23T05:02:45;17.52;;;7.45;;
22490;SDS011;11412;50.802;4.350;2022-08-23T05:05:11;7.47;;;6.70;;
22490;SDS011;11412;50.802;4.350;2022-08-23T05:07:37;12.50;;;6.88;;
22490;SDS011;11412;50.802;4.350;2022-08-23T05:10:04;11.20;;;6.28;;
22490;SDS011;11412;50.802;4.350;2022-08-23T05:12:32;9.10;;;6.25;;
22490;SDS011;11412;50.802;4.350;2022-08-23T05:14:58;10.25;;;6.28;;
22490;SDS011;11412;50.802;4.350;2022-08-23T05:17:24;12.57;;;6.63;;
22490;SDS011;11412;50.802;4.350;2022-08-23T05:19:49;8.75;;;6.35;;
22490;SDS011;11412;50.802;4.350;2022-08-23T05:22:15;8.93;;;5.78;;
22490;SDS011;11412;50.802;4.350;2022-08-23T05:24:41;10.10;;;6.32;;
22490;SDS011;11412;50.802;4.350;2022-08-23T05:27:07;12.40;;;7.47;;
22490;SDS011;11412;50.802;4.350;2022-08-23T05:29:34;14.77;;;7.18;;
22490;SDS011;11412;50.802;4.350;2022-08-23T05:32:00;13.32;;;6.68;;
22490;SDS011;11412;50.802;4.350;2022-08-23T05:34:26;14.07;;;6.90;;
22490;SDS011;11412;50.802;4.350;2022-08-23T05:36:52;10.88;;;7.13;;
22490;SDS011;11412;50.802;4.350;2022-08-23T05:39:18;10.38;;;6.43;;
22490;SDS011;11412;50.802;4.350;2022-08-23T05:41:43;13.43;;;6.93;;
22490;SDS011;11412;50.802;4.350;2022-08-23T05:44:09;9.07;;;7.13;;
22490;SDS011;11412;50.802;4.350;2022-08-23T05:46:36;18.98;;;7.47;;
22490;SDS011;11412;50.802;4.350;2022-08-23T05:49:02;11.18;;;6.88;;
22490;SDS011;11412;50.802;4.350;2022-08-23T05:51:29;12.13;;;7.03;;
22490;SDS011;11412;50.802;4.350;2022-08-23T05:53:58;10.88;;;6.00;;
22490;SDS011;11412;50.802;4.350;2022-08-23T05:58:54;10.50;;;5.95;;
22490;SDS011;11412;50.802;4.350;2022-08-23T06:01:22;9.68;;;6.05;;
22490;SDS011;11412;50.802;4.350;2022-08-23T06:03:48;12.90;;;6.43;;
22490;SDS011;11412;50.802;4.350;2022-08-23T06:06:14;11.07;;;6.32;;
22490;SDS011;11412;50.802;4.350;2022-08-23T06:08:41;13.55;;;6.40;;
22490;SDS011;11412;50.802;4.350;2022-08-23T06:11:12;10.27;;;5.57;;
22490;SDS011;11412;50.802;4.350;2022-08-23T06:13:41;13.77;;;5.97;;
22490;SDS011;11412;50.802;4.350;2022-08-23T06:16:08;13.65;;;6.88;;
22490;SDS011;11412;50.802;4.350;2022-08-23T06:18:35;11.75;;;5.60;;
22490;SDS011;11412;50.802;4.350;2022-08-23T06:21:05;12.90;;;5.80;;
22490;SDS011;11412;50.802;4.350;2022-08-23T06:23:33;11.85;;;5.72;;
22490;SDS011;11412;50.802;4.350;2022-08-23T06:26:00;14.15;;;5.13;;
22490;SDS011;11412;50.802;4.350;2022-08-23T06:28:33;11.77;;;5.85;;
22490;SDS011;11412;50.802;4.350;2022-08-23T06:30:58;11.43;;;4.85;;
22490;SDS011;11412;50.802;4.350;2022-08-23T06:33:24;9.85;;;4.88;;
22490;SDS011;11412;50.802;4.350;2022-08-23T06:35:59;15.52;;;5.68;;
22490;SDS011;11412;50.802;4.350;2022-08-23T06:38:37;8.82;;;4.25;;
22490;SDS011;11412;50.802;4.350;2022-08-23T06:41:07;11.20;;;5.00;;
22490;SDS011;11412;50.802;4.350;2022-08-23T06:43:35;15.60;;;5.72;;
22490;SDS011;11412;50.802;4.350;2022-08-23T06:46:09;10.52;;;4.78;;
22490;SDS011;11412;50.802;4.350;2022-08-23T06:48:35;13.43;;;5.30;;
22490;SDS011;11412;50.802;4.350;2022-08-23T06:51:00;8.68;;;5.20;;
22490;SDS011;11412;50.802;4.350;2022-08-23T06:53:27;8.45;;;5.25;;
22490;SDS011;11412;50.802;4.350;2022-08-23T06:55:53;7.65;;;4.53;;
22490;SDS011;11412;50.802;4.350;2022-08-23T06:58:18;8.30;;;4.97;;
22490;SDS011;11412;50.802;4.350;2022-08-23T07:00:45;10.73;;;4.90;;
22490;SDS011;11412;50.802;4.350;2022-08-23T07:03:10;13.95;;;5.07;;
22490;SDS011;11412;50.802;4.350;2022-08-23T07:05:36;8.50;;;4.28;;
22490;SDS011;11412;50.802;4.350;2022-08-23T07:08:01;4.95;;;3.72;;
22490;SDS011;11412;50.802;4.350;2022-08-23T07:10:27;9.70;;;4.10;;
22490;SDS011;11412;50.802;4.350;2022-08-23T07:12:53;7.70;;;3.20;;
22490;SDS011;11412;50.802;4.350;2022-08-23T07:15:19;8.05;;;3.92;;
22490;SDS011;11412;50.802;4.350;2022-08-23T07:17:44;8.02;;;3.45;;
22490;SDS011;11412;50.802;4.350;2022-08-23T07:20:11;5.93;;;2.80;;
22490;SDS011;11412;50.802;4.350;2022-08-23T07:22:37;5.72;;;3.33;;
22490;SDS011;11412;50.802;4.350;2022-08-23T07:25:04;6.05;;;2.85;;
22490;SDS011;11412;50.802;4.350;2022-08-23T07:27:30;10.32;;;2.75;;
22490;SDS011;11412;50.802;4.350;2022-08-23T07:29:55;9.88;;;2.67;;
22490;SDS011;11412;50.802;4.350;2022-08-23T07:32:21;9.90;;;2.40;;
22490;SDS011;11412;50.802;4.350;2022-08-23T07:34:47;4.28;;;2.10;;
22490;SDS011;11412;50.802;4.350;2022-08-23T07:37:12;6.45;;;1.80;;
22490;SDS011;11412;50.802;4.350;2022-08-23T07:39:38;7.47;;;2.13;;
22490;SDS011;11412;50.802;4.350;2022-08-23T07:42:04;5.03;;;2.10;;
22490;SDS011;11412;50.802;4.350;2022-08-23T07:44:30;4.82;;;1.90;;
22490;SDS011;11412;50.802;4.350;2022-08-23T07:46:55;4.82;;;2.10;;
22490;SDS011;11412;50.802;4.350;2022-08-23T07:49:21;2.90;;;1.88;;
22490;SDS011;11412;50.802;4.350;2022-08-23T07:51:48;5.80;;;2.53;;
22490;SDS011;11412;50.802;4.350;2022-08-23T07:54:15;3.95;;;2.08;;
22490;SDS011;11412;50.802;4.350;2022-08-23T07:56:43;10.18;;;2.25;;
22490;SDS011;11412;50.802;4.350;2022-08-23T07:59:09;3.47;;;1.92;;
22490;SDS011;11412;50.802;4.350;2022-08-23T08:01:36;6.82;;;2.58;;
22490;SDS011;11412;50.802;4.350;2022-08-23T08:04:02;4.53;;;2.40;;
22490;SDS011;11412;50.802;4.350;2022-08-23T08:06:48;6.38;;;2.42;;
22490;SDS011;11412;50.802;4.350;2022-08-23T08:09:14;4.95;;;2.22;;
22490;SDS011;11412;50.802;4.350;2022-08-23T08:11:42;4.63;;;2.33;;
22490;SDS011;11412;50.802;4.350;2022-08-23T08:14:11;4.63;;;2.10;;
22490;SDS011;11412;50.802;4.350;2022-08-23T08:16:39;7.43;;;2.30;;
22490;SDS011;11412;50.802;4.350;2022-08-23T08:19:07;6.43;;;2.65;;
22490;SDS011;11412;50.802;4.350;2022-08-23T08:21:35;7.35;;;2.75;;
22490;SDS011;11412;50.802;4.350;2022-08-23T08:24:02;5.35;;;2.25;;
22490;SDS011;11412;50.802;4.350;2022-08-23T08:26:28;7.88;;;2.88;;
22490;SDS011;11412;50.802;4.350;2022-08-23T08:28:55;5.07;;;2.60;;
22490;SDS011;11412;50.802;4.350;2022-08-23T08:31:21;10.65;;;2.65;;
22490;SDS011;11412;50.802;4.350;2022-08-23T08:33:48;6.25;;;2.08;;
22490;SDS011;11412;50.802;4.350;2022-08-23T08:39:12;3.63;;;1.80;;
22490;SDS011;11412;50.802;4.350;2022-08-23T08:41:52;4.10;;;1.60;;
22490;SDS011;11412;50.802;4.350;2022-08-23T08:44:52;5.47;;;2.20;;
22490;SDS011;11412;50.802;4.350;2022-08-23T08:47:37;5.03;;;2.10;;
22490;SDS011;11412;50.802;4.350;2022-08-23T08:50:28;6.85;;;1.90;;
22490;SDS011;11412;50.802;4.350;2022-08-23T08:55:35;5.50;;;1.80;;
22490;SDS011;11412;50.802;4.350;2022-08-23T08:58:08;3.20;;;1.73;;
22490;SDS011;11412;50.802;4.350;2022-08-23T09:00:45;7.18;;;2.25;;
22490;SDS011;11412;50.802;4.350;2022-08-23T09:03:12;9.13;;;1.98;;
22490;SDS011;11412;50.802;4.350;2022-08-23T09:06:10;6.07;;;2.20;;
22490;SDS011;11412;50.802;4.350;2022-08-23T09:08:39;10.57;;;2.20;;
22490;SDS011;11412;50.802;4.350;2022-08-23T09:16:53;10.13;;;3.08;;
22490;SDS011;11412;50.802;4.350;2022-08-23T09:19:24;7.13;;;2.88;;
22490;SDS011;11412;50.802;4.350;2022-08-23T09:21:58;10.82;;;2.78;;
22490;SDS011;11412;50.802;4.350;2022-08-23T09:24:26;7.40;;;2.50;;
22490;SDS011;11412;50.802;4.350;2022-08-23T09:26:53;9.13;;;3.00;;
22490;SDS011;11412;50.802;4.350;2022-08-23T09:29:21;9.27;;;3.42;;
22490;SDS011;11412;50.802;4.350;2022-08-23T09:31:51;11.32;;;2.83;;
22490;SDS011;11412;50.802;4.350;2022-08-23T09:34:20;8.25;;;3.35;;
22490;SDS011;11412;50.802;4.350;2022-08-23T09:39:48;5.50;;;3.88;;
22490;SDS011;11412;50.802;4.350;2022-08-23T09:42:33;6.20;;;3.50;;
22490;SDS011;11412;50.802;4.350;2022-08-23T09:45:05;4.57;;;3.22;;
22490;SDS011;11412;50.802;4.350;2022-08-23T09:47:49;10.68;;;2.95;;
22490;SDS011;11412;50.802;4.350;2022-08-23T09:50:28;9.10;;;2.63;;
22490;SDS011;11412;50.802;4.350;2022-08-23T09:53:06;7.10;;;2.40;;
22490;SDS011;11412;50.802;4.350;2022-08-23T09:55:46;8.45;;;2.85;;
22490;SDS011;11412;50.802;4.350;2022-08-23T09:58:48;8.23;;;2.95;;
22490;SDS011;11412;50.802;4.350;2022-08-23T10:03:47;9.98;;;3.25;;
22490;SDS011;11412;50.802;4.350;2022-08-23T10:06:40;3.85;;;2.28;;
22490;SDS011;11412;50.802;4.350;2022-08-23T10:09:20;5.07;;;2.20;;
22490;SDS011;11412;50.802;4.350;2022-08-23T10:11:57;2.13;;;1.52;;
22490;SDS011;11412;50.802;4.350;2022-08-23T10:14:25;3.83;;;1.40;;
22490;SDS011;11412;50.802;4.350;2022-08-23T10:22:09;4.32;;;1.70;;
22490;SDS011;11412;50.802;4.350;2022-08-23T10:24:54;3.75;;;1.30;;
22490;SDS011;11412;50.802;4.350;2022-08-23T10:37:05;2.63;;;0.80;;
22490;SDS011;11412;50.802;4.350;2022-08-23T10:42:50;1.13;;;0.68;;
22490;SDS011;11412;50.802;4.350;2022-08-23T10:45:36;1.58;;;0.90;;
22490;SDS011;11412;50.802;4.350;2022-08-23T10:50:41;1.02;;;0.75;;
22490;SDS011;11412;50.802;4.350;2022-08-23T10:53:19;3.35;;;0.73;;
22490;SDS011;11412;50.802;4.350;2022-08-23T10:58:27;3.08;;;0.70;;
22490;SDS011;11412;50.802;4.350;2022-08-23T11:00:57;0.82;;;0.80;;
22490;SDS011;11412;50.802;4.350;2022-08-23T11:03:28;0.63;;;0.63;;
22490;SDS011;11412;50.802;4.350;2022-08-23T11:09:02;1.83;;;0.75;;
22490;SDS011;11412;50.802;4.350;2022-08-23T11:17:06;1.00;;;0.88;;
22490;SDS011;11412;50.802;4.350;2022-08-23T11:19:49;2.47;;;0.70;;
22490;SDS011;11412;50.802;4.350;2022-08-23T11:22:16;3.30;;;0.73;;
22490;SDS011;11412;50.802;4.350;2022-08-23T11:24:54;3.95;;;0.60;;
22490;SDS011;11412;50.802;4.350;2022-08-23T11:29:54;5.72;;;0.88;;
22490;SDS011;11412;50.802;4.350;2022-08-23T11:32:30;2.80;;;0.50;;
22490;SDS011;11412;50.802;4.350;2022-08-23T11:35:04;2.03;;;0.43;;
22490;SDS011;11412;50.802;4.350;2022-08-23T11:37:50;2.22;;;0.73;;
22490;SDS011;11412;50.802;4.350;2022-08-23T11:43:33;3.60;;;0.60;;
22490;SDS011;11412;50.802;4.350;2022-08-23T11:48:42;1.00;;;0.77;;
22490;SDS011;11412;50.802;4.350;2022-08-23T11:57:24;1.48;;;0.70;;
22490;SDS011;11412;50.802;4.350;2022-08-23T12:05:05;2.42;;;0.73;;
22490;SDS011;11412;50.802;4.350;2022-08-23T12:10:21;1.00;;;0.60;;
22490;SDS011;11412;50.802;4.350;2022-08-23T12:13:29;2.10;;;0.45;;
22490;SDS011;11412;50.802;4.350;2022-08-23T12:16:09;0.65;;;0.50;;
22490;SDS011;11412;50.802;4.350;2022-08-23T12:21:24;0.50;;;0.50;;
22490;SDS011;11412;50.802;4.350;2022-08-23T12:24:23;0.85;;;0.60;;
22490;SDS011;11412;50.802;4.350;2022-08-23T12:40:52;2.05;;;0.85;;
22490;SDS011;11412;50.802;4.350;2022-08-23T12:45:53;2.55;;;0.40;;
22490;SDS011;11412;50.802;4.350;2022-08-23T12:48:21;0.52;;;0.50;;
22490;SDS011;11412;50.802;4.350;2022-08-23T12:50:54;0.63;;;0.57;;
22490;SDS011;11412;50.802;4.350;2022-08-23T12:53:29;2.50;;;0.40;;
22490;SDS011;11412;50.802;4.350;2022-08-23T12:56:01;0.68;;;0.60;;
22490;SDS011;11412;50.802;4.350;2022-08-23T12:58:32;0.70;;;0.47;;
22490;SDS011;11412;50.802;4.350;2022-08-23T13:01:03;1.52;;;0.70;;
22490;SDS011;11412;50.802;4.350;2022-08-23T13:03:38;0.70;;;0.60;;
22490;SDS011;11412;50.802;4.350;2022-08-23T13:06:10;0.68;;;0.50;;
22490;SDS011;11412;50.802;4.350;2022-08-23T13:11:09;0.68;;;0.40;;
22490;SDS011;11412;50.802;4.350;2022-08-23T13:13:38;1.00;;;0.73;;
22490;SDS011;11412;50.802;4.350;2022-08-23T13:19:13;0.47;;;0.47;;
22490;SDS011;11412;50.802;4.350;2022-08-23T13:21:39;0.93;;;0.70;;
22490;SDS011;11412;50.802;4.350;2022-08-23T13:24:40;6.03;;;0.70;;
22490;SDS011;11412;50.802;4.350;2022-08-23T13:27:18;2.53;;;0.68;;
22490;SDS011;11412;50.802;4.350;2022-08-23T13:32:28;0.65;;;0.60;;
22490;SDS011;11412;50.802;4.350;2022-08-23T13:37:50;5.22;;;0.63;;
22490;SDS011;11412;50.802;4.350;2022-08-23T13:40:19;4.03;;;0.70;;
22490;SDS011;11412;50.802;4.350;2022-08-23T13:47:54;0.73;;;0.60;;
22490;SDS011;11412;50.802;4.350;2022-08-23T13:50:24;0.70;;;0.70;;
22490;SDS011;11412;50.802;4.350;2022-08-23T13:52:55;0.80;;;0.80;;
22490;SDS011;11412;50.802;4.350;2022-08-23T13:55:20;0.90;;;0.68;;
22490;SDS011;11412;50.802;4.350;2022-08-23T13:57:47;0.98;;;0.90;;
22490;SDS011;11412;50.802;4.350;2022-08-23T14:00:13;3.75;;;0.70;;
22490;SDS011;11412;50.802;4.350;2022-08-23T14:02:39;0.73;;;0.50;;
22490;SDS011;11412;50.802;4.350;2022-08-23T14:05:05;2.30;;;0.90;;
22490;SDS011;11412;50.802;4.350;2022-08-23T14:07:32;1.10;;;0.70;;
22490;SDS011;11412;50.802;4.350;2022-08-23T14:09:58;0.75;;;0.75;;
22490;SDS011;11412;50.802;4.350;2022-08-23T14:12:26;0.98;;;0.70;;
22490;SDS011;11412;50.802;4.350;2022-08-23T14:14:54;2.75;;;0.70;;
22490;SDS011;11412;50.802;4.350;2022-08-23T14:17:21;1.55;;;0.60;;
22490;SDS011;11412;50.802;4.350;2022-08-23T14:19:47;2.75;;;0.80;;
22490;SDS011;11412;50.802;4.350;2022-08-23T14:22:12;3.25;;;0.93;;
22490;SDS011;11412;50.802;4.350;2022-08-23T14:24:40;1.80;;;0.88;;
22490;SDS011;11412;50.802;4.350;2022-08-23T14:27:06;0.80;;;0.80;;
22490;SDS011;11412;50.802;4.350;2022-08-23T14:29:33;0.75;;;0.70;;
22490;SDS011;11412;50.802;4.350;2022-08-23T14:31:59;3.63;;;0.82;;
22490;SDS011;11412;50.802;4.350;2022-08-23T14:34:27;4.13;;;1.25;;
22490;SDS011;11412;50.802;4.350;2022-08-23T14:36:54;0.63;;;0.63;;
22490;SDS011;11412;50.802;4.350;2022-08-23T14:39:20;0.80;;;0.80;;
22490;SDS011;11412;50.802;4.350;2022-08-23T14:41:47;1.83;;;0.80;;
22490;SDS011;11412;50.802;4.350;2022-08-23T14:44:14;0.75;;;0.70;;
22490;SDS011;11412;50.802;4.350;2022-08-23T14:46:41;4.35;;;0.60;;
22490;SDS011;11412;50.802;4.350;2022-08-23T14:49:07;2.30;;;0.70;;
22490;SDS011;11412;50.802;4.350;2022-08-23T14:51:34;0.68;;;0.68;;
22490;SDS011;11412;50.802;4.350;2022-08-23T14:54:05;0.45;;;0.45;;
22490;SDS011;11412;50.802;4.350;2022-08-23T14:56:32;7.22;;;0.68;;
22490;SDS011;11412;50.802;4.350;2022-08-23T14:58:58;2.75;;;0.63;;
22490;SDS011;11412;50.802;4.350;2022-08-23T15:01:24;0.70;;;0.70;;
22490;SDS011;11412;50.802;4.350;2022-08-23T15:03:50;2.60;;;0.60;;
22490;SDS011;11412;50.802;4.350;2022-08-23T15:06:16;1.85;;;0.70;;
22490;SDS011;11412;50.802;4.350;2022-08-23T15:08:43;3.25;;;0.80;;
22490;SDS011;11412;50.802;4.350;2022-08-23T15:11:09;1.33;;;0.82;;
22490;SDS011;11412;50.802;4.350;2022-08-23T15:13:36;0.60;;;0.60;;
22490;SDS011;11412;50.802;4.350;2022-08-23T15:16:03;1.55;;;0.60;;
22490;SDS011;11412;50.802;4.350;2022-08-23T15:18:30;1.75;;;0.60;;
22490;SDS011;11412;50.802;4.350;2022-08-23T15:20:57;0.90;;;0.90;;
22490;SDS011;11412;50.802;4.350;2022-08-23T15:23:22;3.53;;;0.60;;
22490;SDS011;11412;50.802;4.350;2022-08-23T15:25:48;1.02;;;0.93;;
22490;SDS011;11412;50.802;4.350;2022-08-23T15:28:15;3.10;;;1.00;;
22490;SDS011;11412;50.802;4.350;2022-08-23T15:30:42;1.70;;;1.00;;
22490;SDS011;11412;50.802;4.350;2022-08-23T15:33:08;3.00;;;1.05;;
22490;SDS011;11412;50.802;4.350;2022-08-23T15:35:39;0.70;;;0.70;;
22490;SDS011;11412;50.802;4.350;2022-08-23T15:38:07;1.38;;;0.70;;
22490;SDS011;11412;50.802;4.350;2022-08-23T15:40:33;0.82;;;0.82;;
22490;SDS011;11412;50.802;4.350;2022-08-23T15:42:59;3.72;;;0.80;;
22490;SDS011;11412;50.802;4.350;2022-08-23T15:45:27;1.33;;;0.80;;
22490;SDS011;11412;50.802;4.350;2022-08-23T15:47:54;0.90;;;0.90;;
22490;SDS011;11412;50.802;4.350;2022-08-23T15:50:24;2.58;;;0.90;;
22490;SDS011;11412;50.802;4.350;2022-08-23T15:52:52;1.02;;;1.00;;
22490;SDS011;11412;50.802;4.350;2022-08-23T15:55:18;3.33;;;1.10;;
22490;SDS011;11412;50.802;4.350;2022-08-23T15:57:45;0.80;;;0.80;;
22490;SDS011;11412;50.802;4.350;2022-08-23T16:00:15;1.70;;;1.05;;
22490;SDS011;11412;50.802;4.350;2022-08-23T16:02:42;5.10;;;1.00;;
22490;SDS011;11412;50.802;4.350;2022-08-23T16:05:08;1.00;;;1.00;;
22490;SDS011;11412;50.802;4.350;2022-08-23T16:07:33;0.85;;;0.85;;
22490;SDS011;11412;50.802;4.350;2022-08-23T16:10:00;1.17;;;1.00;;
22490;SDS011;11412;50.802;4.350;2022-08-23T16:12:27;0.95;;;0.95;;
22490;SDS011;11412;50.802;4.350;2022-08-23T16:14:53;1.00;;;1.00;;
22490;SDS011;11412;50.802;4.350;2022-08-23T16:17:19;1.00;;;1.00;;
22490;SDS011;11412;50.802;4.350;2022-08-23T16:19:46;1.00;;;1.00;;
22490;SDS011;11412;50.802;4.350;2022-08-23T16:22:12;1.63;;;1.20;;
22490;SDS011;11412;50.802;4.350;2022-08-23T16:24:38;0.98;;;0.98;;
22490;SDS011;11412;50.802;4.350;2022-08-23T16:27:04;1.40;;;1.30;;
22490;SDS011;11412;50.802;4.350;2022-08-23T16:29:31;0.90;;;0.90;;
22490;SDS011;11412;50.802;4.350;2022-08-23T16:32:00;1.20;;;1.10;;
22490;SDS011;11412;50.802;4.350;2022-08-23T16:34:29;1.60;;;1.30;;
22490;SDS011;11412;50.802;4.350;2022-08-23T16:36:56;0.80;;;0.80;;
22490;SDS011;11412;50.802;4.350;2022-08-23T16:39:24;1.17;;;1.05;;
22490;SDS011;11412;50.802;4.350;2022-08-23T16:41:50;1.27;;;0.98;;
22490;SDS011;11412;50.802;4.350;2022-08-23T16:44:16;1.10;;;1.10;;
22490;SDS011;11412;50.802;4.350;2022-08-23T16:46:41;1.73;;;1.13;;
22490;SDS011;11412;50.802;4.350;2022-08-23T16:49:08;1.10;;;1.10;;
22490;SDS011;11412;50.802;4.350;2022-08-23T16:51:35;1.10;;;1.10;;
22490;SDS011;11412;50.802;4.350;2022-08-23T16:54:01;2.53;;;1.23;;
22490;SDS011;11412;50.802;4.350;2022-08-23T16:56:27;3.53;;;1.00;;